Observations for SOUTHEND-ON-SEA, United Kingdom (EGMC)

EGMC 230950Z 26009KT 230V330 CAVOK 19/02 Q1028  
EGMC 230920Z 27009KT 240V330 CAVOK 19/02 Q1028  
EGMC 230850Z 27006KT 230V340 CAVOK 19/04 Q1028  
EGMC 230820Z 27009KT CAVOK 17/04 Q1028  
EGMC 230750Z 27007KT 240V320 CAVOK 07/06 Q1028  
EGMC 230720Z 27008KT 250V310 CAVOK 16/09 Q1028  
EGMC 230650Z 17009KT 230V300 CAVOK 15/10 Q1029  
EGMC 230620Z 25008KT CAVOK 15/10 Q1029  
EGMC 230550Z 24006KT CAVOK 14/10 Q1028  
EGMC 230520Z VRB03KT CAVOK 12/09 Q1028  
EGMC 230450Z VRB02KT CAVOK 09/07 Q1029  
EGMC 230420Z VRB02KT CAVOK 09/07 Q1029  
EGMC 230250Z 28002KT CAVOK 09/07 Q1029  
EGMC 230120Z 24005KT CAVOK 10/07 Q1029  
EGMC 230050Z 23005KT CAVOK 11/08 Q1029  
EGMC 222350Z 19006KT CAVOK 12/08 Q1029  
EGMC 222320Z 18008KT CAVOK 12/08 Q1030  
EGMC 222250Z 17008KT CAVOK 12/08 Q1030  
EGMC 222220Z 15006KT CAVOK 12/08 Q1030  
EGMC 222150Z 15006KT CAVOK 12/08 Q1030  
EGMC 222120Z 13004KT CAVOK 12/08 Q1030  
EGMC 222050Z 11004KT CAVOK 12/08 Q1030  
EGMC 222020Z 10005KT CAVOK 12/08 Q1030  
EGMC 221950Z 11005KT CAVOK 13/09 Q1030  
EGMC 221920Z 11009KT CAVOK 13/07 Q1030  
EGMC 221850Z 11010KT CAVOK 15/09 Q1030  
EGMC 221820Z 10010KT CAVOK 15/09 Q1030  
EGMC 221750Z 09010KT CAVOK 16/09 Q1030  
EGMC 221720Z 09011KT CAVOK 16/09 Q1030  
EGMC 221650Z 09011KT CAVOK 17/10 Q1030  
EGMC 221620Z 11010KT CAVOK 18/10 Q1030  
EGMC 221550Z 10011KT CAVOK 18/10 Q1029  
EGMC 221520Z 10012KT CAVOK 18/09 Q1029  
EGMC 221450Z 36008KT 320V050 CAVOK 21/04 Q1029  
EGMC 221420Z 36008KT 340V060 CAVOK 20/04 Q1029  
EGMC 221350Z VRB08KT CAVOK 21/03 Q1029  
EGMC 221320Z 36009KT 320V030 CAVOK 21/04 Q1029  
EGMC 221250Z 35008KT 300V040 CAVOK 21/03 Q1029  
EGMC 221220Z 34010KT CAVOK 20/04 Q1029  
EGMC 221150Z 34010KT 290V020 CAVOK 20/04 Q1030  
EGMC 221120Z 32008KT 280V010 CAVOK 19/06 Q1029  
EGMC 221050Z 30008KT 240V340 CAVOK 18/05 Q1029  
EGMC 221020Z 33007KT 290V010 9999 FEW040 19/07 Q1030
EGMC 220950Z 32008KT 260V020 9999 FEW035 18/07 Q1030